createdAt,value
2019-05-15T00:02:29.716Z,45.28
2019-05-15T00:05:01.781Z,40.85
2019-05-15T00:07:33.149Z,41.88
2019-05-15T00:10:08.546Z,40.88
2019-05-15T00:12:40.992Z,45.43
2019-05-15T00:15:12.646Z,47.75
2019-05-15T00:17:44.450Z,47.38
2019-05-15T00:20:16.023Z,43.15
2019-05-15T00:22:48.447Z,44.63
2019-05-15T00:25:22.695Z,43.52
2019-05-15T00:27:58.152Z,42.08
2019-05-15T00:30:29.622Z,42.17
2019-05-15T00:33:00.973Z,45.15
2019-05-15T00:35:32.728Z,43.10
2019-05-15T00:38:04.493Z,41.42
2019-05-15T00:40:39.203Z,39.15
2019-05-15T00:43:09.537Z,44.25
2019-05-15T00:45:44.331Z,39.08
2019-05-15T00:48:14.566Z,39.40
2019-05-15T00:50:48.396Z,45.43
2019-05-15T00:53:19.823Z,38.42
2019-05-15T00:55:51.480Z,43.63
2019-05-15T00:58:23.266Z,47.60
2019-05-15T01:00:55.096Z,46.05
2019-05-15T01:03:27.875Z,46.08
2019-05-15T01:05:59.934Z,44.33
2019-05-15T01:08:32.110Z,51.40
2019-05-15T01:11:03.659Z,45.30
2019-05-15T01:13:35.130Z,47.88
2019-05-15T01:16:09.250Z,51.98
2019-05-15T01:18:41.082Z,49.18
2019-05-15T01:21:12.895Z,52.93
2019-05-15T01:23:44.812Z,50.50
2019-05-15T01:26:18.863Z,49.85
2019-05-15T01:28:50.200Z,51.00
2019-05-15T01:31:22.232Z,44.77
2019-05-15T01:33:53.730Z,49.50
2019-05-15T01:36:25.677Z,45.05
2019-05-15T01:38:58.476Z,41.13
2019-05-15T01:41:30.094Z,42.62
2019-05-15T01:44:02.552Z,44.08
2019-05-15T01:46:34.208Z,40.50
2019-05-15T01:49:08.046Z,45.10
2019-05-15T01:51:39.426Z,34.85
2019-05-15T01:54:10.942Z,39.85
2019-05-15T01:56:42.857Z,45.92
2019-05-15T01:59:14.655Z,41.23
2019-05-15T02:01:48.488Z,40.50
2019-05-15T02:04:20.823Z,41.88
2019-05-15T02:06:52.600Z,35.20
2019-05-15T02:09:24.074Z,41.42
2019-05-15T02:11:57.981Z,39.78
2019-05-15T02:14:28.971Z,37.85
2019-05-15T02:17:00.931Z,42.60
2019-05-15T02:19:32.788Z,39.75
2019-05-15T02:22:04.344Z,38.10
2019-05-15T02:24:38.856Z,41.02
2019-05-15T02:29:40.540Z,42.00
2019-05-15T02:32:12.422Z,34.18
2019-05-15T02:34:43.856Z,39.40
2019-05-15T02:37:15.608Z,35.60
2019-05-15T02:39:49.585Z,40.80
2019-05-15T02:42:20.987Z,49.08
2019-05-15T02:44:52.331Z,64.03
2019-05-15T02:47:24.413Z,66.57
2019-05-15T02:49:59.107Z,55.73
2019-05-15T02:52:29.867Z,58.68
2019-05-15T02:55:01.403Z,55.50
2019-05-15T02:57:33.205Z,51.25
2019-05-15T03:00:10.362Z,53.65
2019-05-15T03:02:41.600Z,66.25
2019-05-15T03:05:13.334Z,54.55
2019-05-15T03:07:45.270Z,60.85
2019-05-15T03:10:19.968Z,56.77
2019-05-15T03:12:50.353Z,60.25
2019-05-15T03:15:21.884Z,49.15
2019-05-15T03:17:53.461Z,63.02
2019-05-15T03:20:24.904Z,61.95
2019-05-15T03:22:59.525Z,47.95
2019-05-15T03:25:29.899Z,55.25
2019-05-15T03:28:01.429Z,68.45
2019-05-15T03:31:04.747Z,53.25
2019-05-15T03:33:11.560Z,71.05
2019-05-15T03:35:42.973Z,63.63
2019-05-15T03:38:12.552Z,62.75
2019-05-15T03:40:43.886Z,71.40
2019-05-15T03:43:18.409Z,70.17
2019-05-15T03:45:49.423Z,93.07
2019-05-15T03:48:21.209Z,88.67
2019-05-15T03:50:52.556Z,91.63
2019-05-15T03:53:23.974Z,103.25
2019-05-15T03:55:58.212Z,111.47
2019-05-15T03:58:29.046Z,83.42
2019-05-15T04:01:01.650Z,92.70
2019-05-15T04:03:33.403Z,102.05
2019-05-15T04:06:05.025Z,84.35
2019-05-15T04:08:39.111Z,57.90
2019-05-15T04:11:09.831Z,58.08
2019-05-15T04:13:41.553Z,64.72
2019-05-15T04:16:12.945Z,46.95
2019-05-15T04:18:44.495Z,61.05
2019-05-15T04:21:15.957Z,48.28
2019-05-15T04:23:49.962Z,43.17
2019-05-15T04:26:20.981Z,50.55
2019-05-15T04:28:52.739Z,45.25
2019-05-15T04:31:35.585Z,47.23
2019-05-15T04:34:01.136Z,46.48
2019-05-15T04:36:32.508Z,45.55
2019-05-15T04:39:06.004Z,50.05
2019-05-15T04:41:39.348Z,49.27
2019-05-15T04:44:10.847Z,40.50
2019-05-15T04:46:43.578Z,45.08
2019-05-15T04:49:15.287Z,45.40
2019-05-15T04:51:49.820Z,53.28
2019-05-15T04:54:22.589Z,41.95
2019-05-15T04:56:54.041Z,41.13
2019-05-15T04:59:25.545Z,41.77
2019-05-15T05:02:16.341Z,39.90
2019-05-15T05:04:30.374Z,34.13
2019-05-15T05:07:04.112Z,27.82
2019-05-15T05:09:38.764Z,34.48
2019-05-15T05:12:08.739Z,30.60
2019-05-15T05:14:40.279Z,32.30
2019-05-15T05:17:12.651Z,27.07
2019-05-15T05:19:44.084Z,41.63
2019-05-15T05:22:15.414Z,41.50
2019-05-15T05:24:47.828Z,34.35
2019-05-15T05:27:19.340Z,26.23
2019-05-15T05:29:50.895Z,34.43
2019-05-15T05:32:32.010Z,39.60
2019-05-15T05:34:55.477Z,43.42
2019-05-15T05:37:27.955Z,38.67
2019-05-15T05:39:59.711Z,33.20
2019-05-15T05:42:31.123Z,38.28
2019-05-15T05:45:02.670Z,48.20
2019-05-15T05:47:34.037Z,35.92
2019-05-15T05:50:07.991Z,28.77
2019-05-15T05:52:39.432Z,26.95
2019-05-15T05:55:11.238Z,27.58
2019-05-15T05:57:42.601Z,31.82
2019-05-15T06:00:18.063Z,27.13
2019-05-15T06:02:52.148Z,31.42
2019-05-15T06:05:21.999Z,22.35
2019-05-15T06:07:53.602Z,30.82
2019-05-15T06:10:25.061Z,31.73
2019-05-15T06:12:58.708Z,27.62
2019-05-15T06:15:29.915Z,22.00
2019-05-15T06:18:02.278Z,31.15
2019-05-15T06:20:33.765Z,30.55
2019-05-15T06:23:05.177Z,57.03
2019-05-15T06:25:38.928Z,37.67
2019-05-15T06:28:11.902Z,28.87
2019-05-15T06:30:43.320Z,34.92
2019-05-15T06:33:14.640Z,26.77
2019-05-15T06:35:48.563Z,35.35
2019-05-15T06:38:19.773Z,31.57
2019-05-15T06:40:51.560Z,22.70
2019-05-15T06:43:23.046Z,30.48
2019-05-15T06:45:54.527Z,22.58
2019-05-15T06:48:25.970Z,21.93
2019-05-15T06:50:58.022Z,18.25
2019-05-15T06:53:29.566Z,19.55
2019-05-15T06:56:03.423Z,22.70
2019-05-15T06:58:34.941Z,23.83
2019-05-15T07:01:08.848Z,22.17
2019-05-15T07:03:39.923Z,22.50
2019-05-15T07:06:11.644Z,22.67
2019-05-15T07:08:43.217Z,15.93
2019-05-15T07:11:14.706Z,10.95
2019-05-15T07:13:45.992Z,12.47
2019-05-15T07:16:18.218Z,15.05
2019-05-15T07:18:49.608Z,19.07
2019-05-15T07:21:21.163Z,11.20
2019-05-15T07:23:52.486Z,12.70
2019-05-15T07:26:23.973Z,11.90
2019-05-15T07:28:56.281Z,13.55
2019-05-15T07:31:29.861Z,9.13
2019-05-15T07:34:01.138Z,10.88
2019-05-15T07:36:32.541Z,10.03
2019-05-15T07:39:08.601Z,12.40
2019-05-15T07:41:40.053Z,7.33
2019-05-15T07:44:11.255Z,8.45
2019-05-15T07:46:42.624Z,13.38
2019-05-15T07:49:13.909Z,4.17
2019-05-15T07:51:45.326Z,5.50
2019-05-15T07:54:18.218Z,4.70
2019-05-15T07:56:50.093Z,9.88
2019-05-15T07:59:21.410Z,12.15
2019-05-15T08:01:52.909Z,5.58
2019-05-15T08:04:29.449Z,5.75
2019-05-15T08:09:30.924Z,7.62
2019-05-15T08:12:03.477Z,10.70
2019-05-15T08:14:34.783Z,7.65
2019-05-15T08:17:08.513Z,19.00
2019-05-15T08:19:39.117Z,17.73
2019-05-15T08:22:10.575Z,14.38
2019-05-15T08:24:41.944Z,21.30
2019-05-15T08:27:13.537Z,13.70
2019-05-15T08:29:44.969Z,14.70
2019-05-15T08:32:18.809Z,13.28
2019-05-15T08:34:49.952Z,17.65
2019-05-15T08:37:21.443Z,15.23
2019-05-15T08:39:52.791Z,15.48
2019-05-15T08:42:24.373Z,23.92
2019-05-15T08:44:55.681Z,27.40
2019-05-15T08:47:29.662Z,26.55
2019-05-15T08:50:00.451Z,26.68
2019-05-15T08:52:31.835Z,23.83
2019-05-15T08:55:03.239Z,16.97
2019-05-15T08:57:34.671Z,28.32
2019-05-15T09:00:09.681Z,18.75
2019-05-15T09:02:43.658Z,12.28
2019-05-15T09:05:14.981Z,12.23
2019-05-15T09:07:48.620Z,15.03
2019-05-15T09:10:19.799Z,11.97
2019-05-15T09:12:54.239Z,9.28
2019-05-15T09:15:25.511Z,16.52
2019-05-15T09:20:29.017Z,8.50
2019-05-15T09:23:00.476Z,9.23
2019-05-15T09:25:31.670Z,10.93
2019-05-15T09:28:03.144Z,9.75
2019-05-15T09:30:34.427Z,11.53
2019-05-15T09:33:08.082Z,12.45
2019-05-15T09:35:39.453Z,27.73
2019-05-15T09:38:11.092Z,14.15
2019-05-15T09:40:46.460Z,8.23
2019-05-15T09:43:15.384Z,8.00
2019-05-15T09:45:49.360Z,12.53
2019-05-15T09:48:20.393Z,13.50
2019-05-15T09:53:23.142Z,13.72
2019-05-15T09:55:54.520Z,8.58
2019-05-15T09:58:25.802Z,8.50
2019-05-15T10:00:56.975Z,7.97
2019-05-15T10:03:28.384Z,14.65
2019-05-15T10:05:59.598Z,13.68
2019-05-15T10:08:31.296Z,12.70
2019-05-15T10:11:02.819Z,12.68
2019-05-15T10:13:34.230Z,8.78
2019-05-15T10:16:08.217Z,10.78
2019-05-15T10:18:39.191Z,9.73
2019-05-15T10:21:12.750Z,10.75
2019-05-15T10:23:44.399Z,12.37
2019-05-15T10:26:15.729Z,9.63
2019-05-15T10:28:49.295Z,15.28
2019-05-15T10:31:20.076Z,15.80
2019-05-15T10:33:51.605Z,7.42
2019-05-15T10:36:22.804Z,10.75
2019-05-15T10:38:54.345Z,11.45
2019-05-15T10:41:28.000Z,11.70
2019-05-15T10:44:00.409Z,11.75
2019-05-15T10:46:32.989Z,15.25
2019-05-15T10:49:04.528Z,10.80
2019-05-15T10:51:35.818Z,12.10
2019-05-15T10:54:08.495Z,9.78
2019-05-15T10:56:39.960Z,10.82
2019-05-15T10:59:11.342Z,15.78
2019-05-15T11:01:43.714Z,8.63
2019-05-15T11:04:15.116Z,22.07
2019-05-15T11:06:48.882Z,23.80
2019-05-15T11:09:20.087Z,36.53
2019-05-15T11:11:51.798Z,18.27
2019-05-15T11:14:24.361Z,26.75
2019-05-15T11:16:55.795Z,12.18
2019-05-15T11:19:35.517Z,24.92
2019-05-15T11:22:00.228Z,16.60
2019-05-15T11:24:32.384Z,9.55
2019-05-15T11:27:03.773Z,23.85
2019-05-15T11:29:38.165Z,25.40
2019-05-15T11:32:09.698Z,20.10
2019-05-15T11:34:42.418Z,35.65
2019-05-15T11:37:13.754Z,15.32
2019-05-15T11:39:47.056Z,18.25
2019-05-15T11:42:20.322Z,17.45
2019-05-15T11:44:53.379Z,13.95
2019-05-15T11:47:24.790Z,15.70
2019-05-15T11:49:58.310Z,11.70
2019-05-15T11:52:29.651Z,14.28
2019-05-15T11:55:01.339Z,14.20
2019-05-15T11:57:42.452Z,10.38
2019-05-15T12:00:14.960Z,14.28
2019-05-15T12:05:11.932Z,12.03
2019-05-15T12:07:47.660Z,12.30
2019-05-15T12:10:18.473Z,12.55
2019-05-15T12:12:50.173Z,10.90
2019-05-15T12:15:21.884Z,13.78
2019-05-15T12:17:53.238Z,18.90
2019-05-15T12:20:28.371Z,13.20
2019-05-15T12:25:31.875Z,12.58
2019-05-15T12:28:03.553Z,12.47
2019-05-15T12:30:34.981Z,20.45
2019-05-15T12:33:09.023Z,20.37
2019-05-15T12:35:40.270Z,15.58
2019-05-15T12:38:12.040Z,16.90
2019-05-15T13:01:16.999Z,16.85
2019-05-15T13:03:41.962Z,14.13
2019-05-15T13:06:15.369Z,13.58
2019-05-15T13:08:48.910Z,15.93
2019-05-15T13:11:19.919Z,17.87
2019-05-15T13:13:51.602Z,11.73
2019-05-15T13:16:23.058Z,16.35
2019-05-15T13:18:54.347Z,19.42
2019-05-15T13:21:26.077Z,31.57
2019-05-15T13:23:58.654Z,19.05
2019-05-15T13:26:30.553Z,27.00
2019-05-15T13:29:02.063Z,19.82
2019-05-15T13:31:33.827Z,20.37
2019-05-15T13:34:05.139Z,18.15
2019-05-15T13:36:39.013Z,25.43
2019-05-15T13:39:09.762Z,21.25
2019-05-15T13:41:41.330Z,18.32
2019-05-15T13:44:14.223Z,21.37
2019-05-15T13:46:47.160Z,29.77
2019-05-15T13:49:19.092Z,28.50
2019-05-15T13:51:50.687Z,20.97
2019-05-15T13:54:22.322Z,14.75
2019-05-15T13:56:53.867Z,16.87
2019-05-15T13:59:28.643Z,14.70
2019-05-15T14:02:01.761Z,18.50
2019-05-15T14:04:33.877Z,23.80
2019-05-15T14:07:08.378Z,23.52
2019-05-15T14:09:48.151Z,17.82
2019-05-15T14:12:21.407Z,19.25
2019-05-15T14:14:58.093Z,20.02
2019-05-15T14:17:31.069Z,21.05
2019-05-15T14:23:13.889Z,30.52
2019-05-15T14:25:58.894Z,26.37
2019-05-15T14:28:48.112Z,33.53
2019-05-15T14:31:43.219Z,29.35
2019-05-15T14:34:54.476Z,25.00
2019-05-15T14:38:02.658Z,42.08
2019-05-15T14:40:34.514Z,36.10
2019-05-15T14:43:14.910Z,38.53
2019-05-15T14:46:08.114Z,38.40
2019-05-15T14:48:50.455Z,22.60
2019-05-15T14:51:28.511Z,25.82
2019-05-15T14:54:14.551Z,60.12
2019-05-15T14:56:58.664Z,40.75
2019-05-15T14:59:40.305Z,37.53
2019-05-15T15:02:26.008Z,28.07
2019-05-15T15:05:26.373Z,24.85
2019-05-15T15:08:17.138Z,38.17
2019-05-15T15:10:59.852Z,40.20
2019-05-15T15:13:57.862Z,30.95
2019-05-15T15:16:42.716Z,26.85
2019-05-15T15:19:35.035Z,24.55
2019-05-15T15:22:19.537Z,34.65
2019-05-15T15:24:53.019Z,22.22
2019-05-15T15:27:38.600Z,20.35
2019-05-15T15:30:29.350Z,27.07
2019-05-15T15:33:14.105Z,19.57
2019-05-15T15:35:59.351Z,16.52
2019-05-15T15:38:43.707Z,14.20
2019-05-15T15:43:58.668Z,13.13
2019-05-15T15:46:39.579Z,18.35
2019-05-15T15:49:23.651Z,27.27
2019-05-15T15:52:02.238Z,31.73
2019-05-15T15:58:03.877Z,23.67
2019-05-15T16:00:50.166Z,32.40
2019-05-15T16:03:38.381Z,37.85
2019-05-15T16:09:31.999Z,21.33
2019-05-15T16:12:39.138Z,45.55
2019-05-15T16:15:24.846Z,29.02
2019-05-15T16:18:08.995Z,22.60
2019-05-15T16:20:52.007Z,43.17
2019-05-15T16:23:59.035Z,25.95
2019-05-15T16:26:49.662Z,24.72
2019-05-15T16:29:28.845Z,24.15
2019-05-15T16:32:09.792Z,45.83
2019-05-15T16:35:09.328Z,23.07
2019-05-15T16:37:49.750Z,26.60
2019-05-15T16:40:45.334Z,149.27
2019-05-15T16:43:43.807Z,128.02
2019-05-15T16:46:28.225Z,52.60
2019-05-15T16:49:10.574Z,95.42
2019-05-15T16:52:04.487Z,87.17
2019-05-15T16:54:43.016Z,70.37
2019-05-15T16:57:42.829Z,101.45
2019-05-15T17:00:34.188Z,105.43
2019-05-15T17:03:14.940Z,77.67
2019-05-15T17:05:51.398Z,83.75
2019-05-15T17:08:41.589Z,70.32
2019-05-15T17:11:28.894Z,66.72
2019-05-15T17:14:19.680Z,84.55
2019-05-15T17:17:20.583Z,74.25
2019-05-15T17:20:04.685Z,93.22
2019-05-15T17:22:49.198Z,75.08
2019-05-15T17:25:38.223Z,92.27
2019-05-15T17:28:18.523Z,84.37
2019-05-15T17:31:03.281Z,85.45
2019-05-15T17:33:40.017Z,138.47
2019-05-15T17:36:38.098Z,215.55
2019-05-15T17:39:33.821Z,372.85
2019-05-15T17:42:00.656Z,340.73
2019-05-15T17:44:43.520Z,213.20
2019-05-15T17:47:28.591Z,400.90
2019-05-15T17:50:28.342Z,351.12
2019-05-15T17:53:07.936Z,252.53
2019-05-15T17:56:04.688Z,205.32
2019-05-15T18:02:04.681Z,131.30
2019-05-15T18:04:51.947Z,135.32
2019-05-15T18:07:48.655Z,123.72
2019-05-15T18:10:27.927Z,107.47
2019-05-15T18:13:04.415Z,72.30
2019-05-15T18:15:53.933Z,88.12
2019-05-15T18:18:47.919Z,80.60
2019-05-15T18:21:22.293Z,81.42
2019-05-15T18:23:53.926Z,67.22
2019-05-15T18:26:25.441Z,75.22
2019-05-15T18:28:58.310Z,73.92
2019-05-15T18:31:30.585Z,60.88
2019-05-15T18:34:02.347Z,79.30
2019-05-15T18:36:33.885Z,65.70
2019-05-15T18:39:08.458Z,79.15
2019-05-15T18:41:40.131Z,93.37
2019-05-15T18:44:13.615Z,97.65
2019-05-15T18:46:49.896Z,96.28
2019-05-15T18:49:22.075Z,86.28
2019-05-15T18:51:53.535Z,84.62
2019-05-15T18:54:25.079Z,95.92
2019-05-15T18:56:58.473Z,122.87
2019-05-15T18:59:31.679Z,100.22
2019-05-15T19:02:03.323Z,91.47
2019-05-15T19:04:35.108Z,97.67
2019-05-15T19:07:08.707Z,97.27
2019-05-15T19:09:39.823Z,80.38
2019-05-15T19:12:11.762Z,70.22
2019-05-15T19:14:43.497Z,77.97
2019-05-15T19:17:15.146Z,84.87
2019-05-15T19:19:48.185Z,61.63
2019-05-15T19:22:20.153Z,86.32
2019-05-15T19:24:51.892Z,65.78
2019-05-15T19:27:23.663Z,56.70
2019-05-15T19:29:59.037Z,46.08
2019-05-15T19:32:31.547Z,48.83
2019-05-15T19:35:03.998Z,50.05
2019-05-15T19:37:37.788Z,47.13
2019-05-15T19:40:09.677Z,40.92
2019-05-15T19:42:41.234Z,55.58
2019-05-15T19:45:13.188Z,43.23
2019-05-15T19:47:44.975Z,54.63
2019-05-15T19:50:18.116Z,59.88
2019-05-15T19:52:50.965Z,54.58
2019-05-15T19:55:22.567Z,57.17
2019-05-15T19:57:55.379Z,53.85
2019-05-15T20:00:28.509Z,62.45
2019-05-15T20:03:00.039Z,63.08
2019-05-15T20:05:31.907Z,66.07
2019-05-15T20:08:03.661Z,62.38
2019-05-15T20:10:35.658Z,82.37
2019-05-15T20:13:07.598Z,81.20
2019-05-15T20:15:39.558Z,91.20
2019-05-15T20:18:11.725Z,89.07
2019-05-15T20:20:44.086Z,98.60
2019-05-15T20:23:18.259Z,80.17
2019-05-15T20:25:49.899Z,110.85
2019-05-15T20:28:22.082Z,95.50
2019-05-15T20:30:53.750Z,85.53
2019-05-15T20:33:25.360Z,110.72
2019-05-15T20:35:58.843Z,115.52
2019-05-15T20:38:31.532Z,112.22
2019-05-15T20:41:03.372Z,160.95
2019-05-15T20:43:34.818Z,107.32
2019-05-15T20:46:08.456Z,124.92
2019-05-15T20:48:40.183Z,106.00
2019-05-15T20:51:11.736Z,123.53
2019-05-15T20:53:43.397Z,113.15
2019-05-15T20:56:15.178Z,119.53
2019-05-15T20:58:47.907Z,95.38
2019-05-15T21:01:20.817Z,87.67
2019-05-15T21:03:52.572Z,105.43
2019-05-15T21:06:24.431Z,90.45
2019-05-15T21:08:57.862Z,88.92
2019-05-15T21:11:29.691Z,91.30
2019-05-15T21:14:01.440Z,89.67
2019-05-15T21:16:33.219Z,110.70
2019-05-15T21:19:04.545Z,86.05
2019-05-15T21:21:38.432Z,97.82
2019-05-15T21:24:10.416Z,92.72
2019-05-15T21:26:41.984Z,88.17
2019-05-15T21:29:13.729Z,86.75
2019-05-15T21:31:45.587Z,77.75
2019-05-15T21:34:32.261Z,83.70
2019-05-15T21:36:52.163Z,89.17
2019-05-15T21:39:23.831Z,77.87
2019-05-15T21:41:58.153Z,85.38
2019-05-15T21:44:29.380Z,101.80
2019-05-15T21:47:01.967Z,90.38
2019-05-15T21:49:33.634Z,66.77
2019-05-15T21:52:05.379Z,77.72
2019-05-15T21:54:38.535Z,84.37
2019-05-15T21:57:29.111Z,77.82
2019-05-15T21:59:43.322Z,72.90
2019-05-15T22:02:14.866Z,86.25
2019-05-15T22:04:54.865Z,93.17
2019-05-15T22:07:19.819Z,112.88
2019-05-15T22:09:51.269Z,102.87
2019-05-15T22:12:23.037Z,118.35
2019-05-15T22:14:55.403Z,100.12
2019-05-15T22:17:29.351Z,114.55
2019-05-15T22:20:00.246Z,101.07
2019-05-15T22:22:32.056Z,105.70
2019-05-15T22:25:04.273Z,126.80
2019-05-15T22:27:37.790Z,112.37
2019-05-15T22:30:08.922Z,157.52
2019-05-15T22:32:41.716Z,118.70
2019-05-15T22:35:14.162Z,130.97
2019-05-15T22:37:45.877Z,129.23
2019-05-15T22:40:18.685Z,103.42
2019-05-15T22:42:50.463Z,80.70
2019-05-15T22:45:22.328Z,95.75
2019-05-15T22:47:54.183Z,75.32
2019-05-15T22:50:27.854Z,73.70
2019-05-15T22:52:59.130Z,80.90
2019-05-15T22:55:30.578Z,88.37
2019-05-15T22:58:02.412Z,76.77
2019-05-15T23:00:33.998Z,63.55
2019-05-15T23:03:08.237Z,58.08
2019-05-15T23:05:39.253Z,56.75
2019-05-15T23:08:11.211Z,62.90
2019-05-15T23:10:42.558Z,71.53
2019-05-15T23:13:14.322Z,62.38
2019-05-15T23:15:47.718Z,56.25
2019-05-15T23:18:19.374Z,67.30
2019-05-15T23:20:51.236Z,59.10
2019-05-15T23:23:24.640Z,54.33
2019-05-15T23:25:57.816Z,63.92
2019-05-15T23:28:29.369Z,51.95
2019-05-15T23:31:01.026Z,56.20
2019-05-15T23:33:32.882Z,63.98
2019-05-15T23:36:04.232Z,66.90
2019-05-15T23:38:35.892Z,61.37
2019-05-15T23:41:08.220Z,64.92
2019-05-15T23:43:39.816Z,58.85
2019-05-15T23:46:11.168Z,63.65
2019-05-15T23:48:42.825Z,54.38
2019-05-15T23:51:14.169Z,61.40
2019-05-15T23:53:48.177Z,67.17
2019-05-15T23:56:19.392Z,57.03
2019-05-15T23:58:51.978Z,59.13
